sensor_id;sensor_type;location;lat;lon;timestamp;pressure;altitude;pressure_sealevel;temperature;humidity
63204;BME280;49297;43.210;27.914;2023-06-22T00:02:21;101327.44;;;21.44;74.39
63204;BME280;49297;43.210;27.914;2023-06-22T00:04:47;101331.97;;;21.44;74.57
63204;BME280;49297;43.210;27.914;2023-06-22T00:07:13;101325.41;;;21.46;74.68
63204;BME280;49297;43.210;27.914;2023-06-22T00:09:40;101331.63;;;21.47;74.60
63204;BME280;49297;43.210;27.914;2023-06-22T00:12:06;101326.25;;;21.47;74.56
63204;BME280;49297;43.210;27.914;2023-06-22T00:14:33;101331.97;;;21.44;74.51
63204;BME280;49297;43.210;27.914;2023-06-22T00:16:59;101330.97;;;21.45;74.34
63204;BME280;49297;43.210;27.914;2023-06-22T00:19:25;101329.69;;;21.41;74.72
63204;BME280;49297;43.210;27.914;2023-06-22T00:21:51;101335.66;;;21.36;74.90
63204;BME280;49297;43.210;27.914;2023-06-22T00:24:20;101325.44;;;21.32;74.81
63204;BME280;49297;43.210;27.914;2023-06-22T00:26:48;101328.16;;;21.32;75.05
63204;BME280;49297;43.210;27.914;2023-06-22T00:29:14;101328.34;;;21.30;74.96
63204;BME280;49297;43.210;27.914;2023-06-22T00:31:40;101328.75;;;21.27;75.01
63204;BME280;49297;43.210;27.914;2023-06-22T00:34:08;101333.28;;;21.26;74.95
63204;BME280;49297;43.210;27.914;2023-06-22T00:36:38;101337.19;;;21.24;74.88
63204;BME280;49297;43.210;27.914;2023-06-22T00:39:08;101336.19;;;21.25;74.97
63204;BME280;49297;43.210;27.914;2023-06-22T00:41:35;101339.06;;;21.23;75.15
63204;BME280;49297;43.210;27.914;2023-06-22T00:44:01;101332.00;;;21.22;75.01
63204;BME280;49297;43.210;27.914;2023-06-22T00:46:27;101334.88;;;21.21;75.59
63204;BME280;49297;43.210;27.914;2023-06-22T00:48:53;101341.13;;;21.21;75.55
63204;BME280;49297;43.210;27.914;2023-06-22T00:51:23;101346.28;;;21.23;75.66
63204;BME280;49297;43.210;27.914;2023-06-22T00:53:51;101339.69;;;21.25;75.61
63204;BME280;49297;43.210;27.914;2023-06-22T00:56:19;101339.69;;;21.25;75.68
63204;BME280;49297;43.210;27.914;2023-06-22T00:58:50;101335.97;;;21.26;75.80
63204;BME280;49297;43.210;27.914;2023-06-22T01:01:18;101338.66;;;21.26;75.70
63204;BME280;49297;43.210;27.914;2023-06-22T01:03:49;101343.03;;;21.27;75.27
63204;BME280;49297;43.210;27.914;2023-06-22T01:06:21;101340.72;;;21.24;75.64
63204;BME280;49297;43.210;27.914;2023-06-22T01:09:05;101340.91;;;21.23;75.56
63204;BME280;49297;43.210;27.914;2023-06-22T01:11:39;101338.22;;;21.23;75.78
63204;BME280;49297;43.210;27.914;2023-06-22T01:14:40;101339.25;;;21.22;75.81
63204;BME280;49297;43.210;27.914;2023-06-22T01:17:08;101343.59;;;21.23;75.34
63204;BME280;49297;43.210;27.914;2023-06-22T01:19:56;101335.75;;;21.21;74.73
63204;BME280;49297;43.210;27.914;2023-06-22T01:22:29;101339.06;;;21.23;74.84
63204;BME280;49297;43.210;27.914;2023-06-22T01:25:19;101332.44;;;21.26;74.44
63204;BME280;49297;43.210;27.914;2023-06-22T01:28:05;101329.56;;;21.27;73.92
63204;BME280;49297;43.210;27.914;2023-06-22T01:30:42;101320.47;;;21.28;73.34
63204;BME280;49297;43.210;27.914;2023-06-22T01:33:13;101323.16;;;21.28;72.92
63204;BME280;49297;43.210;27.914;2023-06-22T01:35:41;101320.47;;;21.28;72.93
63204;BME280;49297;43.210;27.914;2023-06-22T01:38:08;101321.94;;;21.31;72.75
63204;BME280;49297;43.210;27.914;2023-06-22T01:40:36;101326.31;;;21.32;73.02
63204;BME280;49297;43.210;27.914;2023-06-22T01:43:04;101328.78;;;21.34;73.00
63204;BME280;49297;43.210;27.914;2023-06-22T01:45:43;101324.88;;;21.36;72.70
63204;BME280;49297;43.210;27.914;2023-06-22T01:48:09;101326.16;;;21.40;72.37
63204;BME280;49297;43.210;27.914;2023-06-22T01:50:35;101331.97;;;21.44;71.93
63204;BME280;49297;43.210;27.914;2023-06-22T01:53:02;101327.94;;;21.48;70.99
63204;BME280;49297;43.210;27.914;2023-06-22T01:55:28;101336.44;;;21.52;70.59
63204;BME280;49297;43.210;27.914;2023-06-22T01:57:56;101330.47;;;21.56;70.05
63204;BME280;49297;43.210;27.914;2023-06-22T02:00:22;101323.00;;;21.58;69.43
63204;BME280;49297;43.210;27.914;2023-06-22T02:02:54;101327.81;;;21.63;68.76
63204;BME280;49297;43.210;27.914;2023-06-22T02:05:23;101340.06;;;21.65;68.85
63204;BME280;49297;43.210;27.914;2023-06-22T02:08:02;101334.47;;;21.67;68.25
63204;BME280;49297;43.210;27.914;2023-06-22T02:10:32;101335.53;;;21.66;68.25
63204;BME280;49297;43.210;27.914;2023-06-22T02:13:01;101346.94;;;21.68;68.69
63204;BME280;49297;43.210;27.914;2023-06-22T02:15:29;101342.16;;;21.70;68.80
63204;BME280;49297;43.210;27.914;2023-06-22T02:17:56;101348.19;;;21.72;69.07
63204;BME280;49297;43.210;27.914;2023-06-22T02:20:24;101350.88;;;21.72;69.14
63204;BME280;49297;43.210;27.914;2023-06-22T02:22:50;101351.53;;;21.74;69.15
63204;BME280;49297;43.210;27.914;2023-06-22T02:25:16;101354.03;;;21.76;69.29
63204;BME280;49297;43.210;27.914;2023-06-22T02:27:41;101354.66;;;21.78;69.00
63204;BME280;49297;43.210;27.914;2023-06-22T02:30:08;101352.81;;;21.78;69.24
63204;BME280;49297;43.210;27.914;2023-06-22T02:32:35;101352.38;;;21.75;69.28
63204;BME280;49297;43.210;27.914;2023-06-22T02:35:13;101351.31;;;21.76;69.56
63204;BME280;49297;43.210;27.914;2023-06-22T02:37:39;101360.47;;;21.75;69.66
63204;BME280;49297;43.210;27.914;2023-06-22T02:40:09;101355.88;;;21.75;69.86
63204;BME280;49297;43.210;27.914;2023-06-22T02:42:35;101360.47;;;21.75;69.84
63204;BME280;49297;43.210;27.914;2023-06-22T02:45:02;101365.84;;;21.75;70.03
63204;BME280;49297;43.210;27.914;2023-06-22T02:47:27;101369.38;;;21.75;69.77
63204;BME280;49297;43.210;27.914;2023-06-22T02:49:54;101368.13;;;21.78;69.71
63204;BME280;49297;43.210;27.914;2023-06-22T02:52:20;101373.13;;;21.81;69.41
63204;BME280;49297;43.210;27.914;2023-06-22T02:54:47;101377.69;;;21.80;69.45
63204;BME280;49297;43.210;27.914;2023-06-22T02:57:13;101374.16;;;21.80;69.56
63204;BME280;49297;43.210;27.914;2023-06-22T02:59:41;101382.03;;;21.81;69.68
63204;BME280;49297;43.210;27.914;2023-06-22T03:02:09;101382.91;;;21.82;69.96
63204;BME280;49297;43.210;27.914;2023-06-22T03:04:35;101395.53;;;21.81;69.92
63204;BME280;49297;43.210;27.914;2023-06-22T03:07:03;101391.81;;;21.82;69.70
63204;BME280;49297;43.210;27.914;2023-06-22T03:09:29;101386.41;;;21.82;69.75
63204;BME280;49297;43.210;27.914;2023-06-22T03:11:55;101384.53;;;21.83;69.86
63204;BME280;49297;43.210;27.914;2023-06-22T03:14:21;101383.53;;;21.84;69.85
63204;BME280;49297;43.210;27.914;2023-06-22T03:16:47;101388.72;;;21.85;69.94
63204;BME280;49297;43.210;27.914;2023-06-22T03:19:13;101390.56;;;21.85;69.80
63204;BME280;49297;43.210;27.914;2023-06-22T03:21:39;101392.44;;;21.84;69.74
63204;BME280;49297;43.210;27.914;2023-06-22T03:24:13;101386.03;;;21.85;69.55
63204;BME280;49297;43.210;27.914;2023-06-22T03:26:39;101386.03;;;21.85;69.83
63204;BME280;49297;43.210;27.914;2023-06-22T03:29:07;101397.63;;;21.86;69.46
63204;BME280;49297;43.210;27.914;2023-06-22T03:31:33;101392.06;;;21.88;69.39
63204;BME280;49297;43.210;27.914;2023-06-22T03:34:01;101395.19;;;21.91;68.72
63204;BME280;49297;43.210;27.914;2023-06-22T03:36:27;101392.31;;;21.93;68.31
63204;BME280;49297;43.210;27.914;2023-06-22T03:38:53;101395.81;;;21.93;66.93
63204;BME280;49297;43.210;27.914;2023-06-22T03:41:19;101385.28;;;21.98;66.77
63204;BME280;49297;43.210;27.914;2023-06-22T03:43:45;101397.16;;;22.04;66.14
63204;BME280;49297;43.210;27.914;2023-06-22T03:46:11;101385.56;;;22.10;65.52
63204;BME280;49297;43.210;27.914;2023-06-22T03:48:38;101391.81;;;22.17;65.78
63204;BME280;49297;43.210;27.914;2023-06-22T03:51:04;101390.41;;;22.21;65.94
63204;BME280;49297;43.210;27.914;2023-06-22T03:53:30;101397.25;;;22.24;66.33
63204;BME280;49297;43.210;27.914;2023-06-22T03:55:56;101395.03;;;22.28;65.75
63204;BME280;49297;43.210;27.914;2023-06-22T03:58:23;101397.34;;;22.31;65.31
63204;BME280;49297;43.210;27.914;2023-06-22T04:00:51;101401.28;;;22.35;65.08
63204;BME280;49297;43.210;27.914;2023-06-22T04:03:17;101389.50;;;22.36;64.77
63204;BME280;49297;43.210;27.914;2023-06-22T04:05:48;101395.13;;;22.41;64.13
63204;BME280;49297;43.210;27.914;2023-06-22T04:08:15;101405.28;;;22.46;63.73
63204;BME280;49297;43.210;27.914;2023-06-22T04:10:41;101407.22;;;22.52;63.77
63204;BME280;49297;43.210;27.914;2023-06-22T04:13:07;101410.56;;;22.60;63.36
63204;BME280;49297;43.210;27.914;2023-06-22T04:15:33;101408.75;;;22.68;63.00
63204;BME280;49297;43.210;27.914;2023-06-22T04:17:59;101409.41;;;22.76;62.59
63204;BME280;49297;43.210;27.914;2023-06-22T04:20:25;101407.75;;;22.82;62.46
63204;BME280;49297;43.210;27.914;2023-06-22T04:22:53;101407.56;;;22.90;62.09
63204;BME280;49297;43.210;27.914;2023-06-22T04:25:19;101407.16;;;22.93;61.52
63204;BME280;49297;43.210;27.914;2023-06-22T04:27:48;101404.50;;;23.00;62.26
63204;BME280;49297;43.210;27.914;2023-06-22T04:30:14;101415.53;;;23.05;62.60
63204;BME280;49297;43.210;27.914;2023-06-22T04:32:42;101412.84;;;23.12;62.70
63204;BME280;49297;43.210;27.914;2023-06-22T04:35:11;101415.13;;;23.15;62.69
63204;BME280;49297;43.210;27.914;2023-06-22T04:37:37;101419.75;;;23.21;62.84
63204;BME280;49297;43.210;27.914;2023-06-22T04:40:05;101419.09;;;23.26;62.77
63204;BME280;49297;43.210;27.914;2023-06-22T04:42:34;101418.50;;;23.30;61.99
63204;BME280;49297;43.210;27.914;2023-06-22T04:45:09;101418.28;;;23.38;61.63
63204;BME280;49297;43.210;27.914;2023-06-22T04:47:37;101413.31;;;23.49;61.46
63204;BME280;49297;43.210;27.914;2023-06-22T04:50:05;101419.38;;;23.57;61.71
63204;BME280;49297;43.210;27.914;2023-06-22T04:52:31;101429.13;;;23.65;61.51
63204;BME280;49297;43.210;27.914;2023-06-22T04:54:57;101437.03;;;23.73;61.51
63204;BME280;49297;43.210;27.914;2023-06-22T04:57:25;101434.53;;;23.72;61.54
63204;BME280;49297;43.210;27.914;2023-06-22T04:59:58;101428.72;;;23.75;61.89
63204;BME280;49297;43.210;27.914;2023-06-22T05:02:37;101431.28;;;23.83;61.67
63204;BME280;49297;43.210;27.914;2023-06-22T05:05:04;101434.16;;;23.95;60.54
63204;BME280;49297;43.210;27.914;2023-06-22T05:07:34;101433.53;;;24.00;59.85
63204;BME280;49297;43.210;27.914;2023-06-22T05:10:04;101430.00;;;24.06;60.05
63204;BME280;49297;43.210;27.914;2023-06-22T05:12:31;101434.53;;;24.19;60.17
63204;BME280;49297;43.210;27.914;2023-06-22T05:14:58;101434.53;;;24.32;59.94
63204;BME280;49297;43.210;27.914;2023-06-22T05:17:25;101441.16;;;24.43;59.84
63204;BME280;49297;43.210;27.914;2023-06-22T05:19:52;101437.00;;;24.54;59.88
63204;BME280;49297;43.210;27.914;2023-06-22T05:22:18;101436.97;;;24.60;59.58
63204;BME280;49297;43.210;27.914;2023-06-22T05:24:45;101439.25;;;24.63;59.40
63204;BME280;49297;43.210;27.914;2023-06-22T05:27:12;101439.88;;;24.65;59.15
63204;BME280;49297;43.210;27.914;2023-06-22T05:29:37;101449.44;;;24.68;58.98
63204;BME280;49297;43.210;27.914;2023-06-22T05:32:05;101443.00;;;24.69;58.62
63204;BME280;49297;43.210;27.914;2023-06-22T05:34:32;101444.44;;;24.72;58.71
63204;BME280;49297;43.210;27.914;2023-06-22T05:37:01;101438.38;;;24.76;58.85
63204;BME280;49297;43.210;27.914;2023-06-22T05:39:27;101448.34;;;24.82;57.83
63204;BME280;49297;43.210;27.914;2023-06-22T05:41:53;101447.72;;;24.87;57.63
63204;BME280;49297;43.210;27.914;2023-06-22T05:44:19;101443.31;;;24.93;57.87
63204;BME280;49297;43.210;27.914;2023-06-22T05:46:45;101443.28;;;24.99;57.67
63204;BME280;49297;43.210;27.914;2023-06-22T05:49:15;101435.31;;;25.04;57.54
63204;BME280;49297;43.210;27.914;2023-06-22T05:51:42;101441.97;;;25.08;56.52
63204;BME280;49297;43.210;27.914;2023-06-22T05:54:08;101432.16;;;25.14;56.56
63204;BME280;49297;43.210;27.914;2023-06-22T05:56:34;101429.84;;;25.18;56.61
63204;BME280;49297;43.210;27.914;2023-06-22T05:59:01;101428.34;;;25.22;56.41
63204;BME280;49297;43.210;27.914;2023-06-22T06:01:28;101422.94;;;25.29;56.79
63204;BME280;49297;43.210;27.914;2023-06-22T06:03:54;101426.22;;;25.37;56.75
63204;BME280;49297;43.210;27.914;2023-06-22T06:06:21;101428.88;;;25.44;56.12
63204;BME280;49297;43.210;27.914;2023-06-22T06:08:49;101422.59;;;25.43;55.77
63204;BME280;49297;43.210;27.914;2023-06-22T06:11:17;101423.47;;;25.44;55.85
63204;BME280;49297;43.210;27.914;2023-06-22T06:13:44;101421.75;;;25.50;56.06
63204;BME280;49297;43.210;27.914;2023-06-22T06:16:11;101433.16;;;25.58;56.31
63204;BME280;49297;43.210;27.914;2023-06-22T06:18:37;101426.84;;;25.64;55.97
63204;BME280;49297;43.210;27.914;2023-06-22T06:21:04;101426.56;;;25.73;55.35
63204;BME280;49297;43.210;27.914;2023-06-22T06:23:30;101429.22;;;25.79;55.43
63204;BME280;49297;43.210;27.914;2023-06-22T06:26:03;101436.69;;;25.84;54.91
63204;BME280;49297;43.210;27.914;2023-06-22T06:28:34;101431.47;;;25.82;55.08
63204;BME280;49297;43.210;27.914;2023-06-22T06:31:01;101425.84;;;25.84;54.95
63204;BME280;49297;43.210;27.914;2023-06-22T06:33:27;101429.31;;;25.91;55.25
63204;BME280;49297;43.210;27.914;2023-06-22T06:35:55;101423.06;;;25.97;54.87
63204;BME280;49297;43.210;27.914;2023-06-22T06:38:22;101422.75;;;26.06;53.80
63204;BME280;49297;43.210;27.914;2023-06-22T06:41:01;101422.91;;;26.11;53.73
63204;BME280;49297;43.210;27.914;2023-06-22T06:43:29;101424.28;;;26.20;53.45
63204;BME280;49297;43.210;27.914;2023-06-22T06:45:56;101429.03;;;26.25;53.40
63204;BME280;49297;43.210;27.914;2023-06-22T06:48:22;101423.53;;;26.31;52.86
63204;BME280;49297;43.210;27.914;2023-06-22T06:50:49;101433.47;;;26.37;53.18
63204;BME280;49297;43.210;27.914;2023-06-22T06:53:15;101421.97;;;26.42;51.83
63204;BME280;49297;43.210;27.914;2023-06-22T06:55:41;101432.28;;;26.52;52.41
63204;BME280;49297;43.210;27.914;2023-06-22T06:58:08;101436.19;;;26.56;52.14
63204;BME280;49297;43.210;27.914;2023-06-22T07:00:35;101437.03;;;26.56;52.29
63204;BME280;49297;43.210;27.914;2023-06-22T07:03:01;101444.72;;;26.59;52.18
63204;BME280;49297;43.210;27.914;2023-06-22T07:05:27;101446.22;;;26.55;52.54
63204;BME280;49297;43.210;27.914;2023-06-22T07:07:53;101451.63;;;26.62;52.78
63204;BME280;49297;43.210;27.914;2023-06-22T07:10:19;101444.81;;;26.71;52.51
63204;BME280;49297;43.210;27.914;2023-06-22T07:12:44;101449.47;;;26.83;52.31
63204;BME280;49297;43.210;27.914;2023-06-22T07:15:11;101451.28;;;26.89;51.72
63204;BME280;49297;43.210;27.914;2023-06-22T07:17:38;101450.69;;;26.87;51.46
63204;BME280;49297;43.210;27.914;2023-06-22T07:20:08;101451.16;;;26.84;50.91
63204;BME280;49297;43.210;27.914;2023-06-22T07:22:46;101452.94;;;26.90;51.06
63204;BME280;49297;43.210;27.914;2023-06-22T07:25:12;101454.44;;;27.04;50.80
63204;BME280;49297;43.210;27.914;2023-06-22T07:28:06;101447.28;;;27.22;50.23
63204;BME280;49297;43.210;27.914;2023-06-22T07:30:34;101451.75;;;27.34;49.45
63204;BME280;49297;43.210;27.914;2023-06-22T07:33:01;101449.88;;;27.47;49.44
63204;BME280;49297;43.210;27.914;2023-06-22T07:35:38;101446.47;;;27.51;48.33
63204;BME280;49297;43.210;27.914;2023-06-22T07:38:06;101452.13;;;27.50;48.76
63204;BME280;49297;43.210;27.914;2023-06-22T07:40:33;101456.88;;;27.54;48.42
63204;BME280;49297;43.210;27.914;2023-06-22T07:42:59;101466.22;;;27.59;47.49
63204;BME280;49297;43.210;27.914;2023-06-22T07:45:25;101461.97;;;27.63;47.68
63204;BME280;49297;43.210;27.914;2023-06-22T07:47:51;101455.00;;;27.67;47.46
63204;BME280;49297;43.210;27.914;2023-06-22T07:50:17;101461.19;;;27.74;47.60
63204;BME280;49297;43.210;27.914;2023-06-22T07:52:43;101458.31;;;27.81;48.17
63204;BME280;49297;43.210;27.914;2023-06-22T07:55:11;101454.09;;;27.85;47.92
63204;BME280;49297;43.210;27.914;2023-06-22T07:57:37;101456.34;;;27.88;48.21
63204;BME280;49297;43.210;27.914;2023-06-22T08:00:06;101459.09;;;28.00;48.66
63204;BME280;49297;43.210;27.914;2023-06-22T08:02:39;101453.31;;;28.08;48.43
63204;BME280;49297;43.210;27.914;2023-06-22T08:05:06;101460.38;;;28.09;48.64
63204;BME280;49297;43.210;27.914;2023-06-22T08:07:35;101471.41;;;28.14;49.17
63204;BME280;49297;43.210;27.914;2023-06-22T08:10:09;101461.09;;;28.16;48.93
63204;BME280;49297;43.210;27.914;2023-06-22T08:12:36;101463.34;;;28.19;49.28
63204;BME280;49297;43.210;27.914;2023-06-22T08:15:03;101455.88;;;28.26;49.07
63204;BME280;49297;43.210;27.914;2023-06-22T08:17:29;101458.38;;;28.28;49.57
63204;BME280;49297;43.210;27.914;2023-06-22T08:19:57;101458.59;;;28.26;49.44
63204;BME280;49297;43.210;27.914;2023-06-22T08:22:29;101463.47;;;28.24;50.31
63204;BME280;49297;43.210;27.914;2023-06-22T08:24:57;101466.19;;;28.36;49.91
63204;BME280;49297;43.210;27.914;2023-06-22T08:27:23;101458.09;;;28.41;49.06
63204;BME280;49297;43.210;27.914;2023-06-22T08:29:51;101452.06;;;28.51;49.39
63204;BME280;49297;43.210;27.914;2023-06-22T08:32:22;101458.94;;;28.54;48.35
63204;BME280;49297;43.210;27.914;2023-06-22T08:34:48;101456.13;;;28.48;48.59
63204;BME280;49297;43.210;27.914;2023-06-22T08:37:14;101454.94;;;28.33;48.79
63204;BME280;49297;43.210;27.914;2023-06-22T08:39:42;101457.75;;;28.38;49.73
63204;BME280;49297;43.210;27.914;2023-06-22T08:42:08;101450.91;;;28.35;49.34
63204;BME280;49297;43.210;27.914;2023-06-22T08:44:34;101462.28;;;28.32;49.29
63204;BME280;49297;43.210;27.914;2023-06-22T08:47:00;101463.59;;;28.29;48.68
63204;BME280;49297;43.210;27.914;2023-06-22T08:49:26;101465.38;;;28.24;49.14
63204;BME280;49297;43.210;27.914;2023-06-22T08:51:55;101461.94;;;28.17;49.54
63204;BME280;49297;43.210;27.914;2023-06-22T08:54:22;101457.91;;;28.19;49.77
63204;BME280;49297;43.210;27.914;2023-06-22T08:56:49;101457.91;;;28.31;50.12
63204;BME280;49297;43.210;27.914;2023-06-22T08:59:15;101464.16;;;28.43;49.20
63204;BME280;49297;43.210;27.914;2023-06-22T09:01:41;101463.94;;;28.57;48.56
63204;BME280;49297;43.210;27.914;2023-06-22T09:04:12;101460.34;;;28.68;48.89
63204;BME280;49297;43.210;27.914;2023-06-22T09:06:40;101457.59;;;28.80;49.15
63204;BME280;49297;43.210;27.914;2023-06-22T09:09:13;101453.06;;;28.85;49.08
63204;BME280;49297;43.210;27.914;2023-06-22T09:11:40;101442.69;;;28.82;48.92
63204;BME280;49297;43.210;27.914;2023-06-22T09:14:06;101456.78;;;28.67;48.57
63204;BME280;49297;43.210;27.914;2023-06-22T09:16:35;101460.38;;;28.44;48.65
63204;BME280;49297;43.210;27.914;2023-06-22T09:19:01;101465.97;;;28.26;49.42
63204;BME280;49297;43.210;27.914;2023-06-22T09:21:27;101460.84;;;28.18;50.05
63204;BME280;49297;43.210;27.914;2023-06-22T09:23:52;101469.41;;;28.09;50.88
63204;BME280;49297;43.210;27.914;2023-06-22T09:26:19;101477.44;;;28.04;51.08
63204;BME280;49297;43.210;27.914;2023-06-22T09:28:51;101465.00;;;28.08;52.14
63204;BME280;49297;43.210;27.914;2023-06-22T09:31:17;101467.25;;;28.12;52.48
63204;BME280;49297;43.210;27.914;2023-06-22T09:33:43;101469.03;;;28.18;52.83
63204;BME280;49297;43.210;27.914;2023-06-22T09:36:10;101471.63;;;28.24;53.06
63204;BME280;49297;43.210;27.914;2023-06-22T09:38:37;101463.47;;;28.24;52.94
63204;BME280;49297;43.210;27.914;2023-06-22T09:41:03;101466.44;;;28.35;52.96
63204;BME280;49297;43.210;27.914;2023-06-22T09:43:32;101463.94;;;28.33;53.43
63204;BME280;49297;43.210;27.914;2023-06-22T09:45:58;101474.94;;;28.38;53.88
63204;BME280;49297;43.210;27.914;2023-06-22T09:48:25;101477.41;;;28.52;54.00
63204;BME280;49297;43.210;27.914;2023-06-22T09:50:57;101477.88;;;28.60;53.99
63204;BME280;49297;43.210;27.914;2023-06-22T09:53:25;101479.50;;;28.73;53.69
63204;BME280;49297;43.210;27.914;2023-06-22T09:55:51;101479.03;;;28.76;52.68
63204;BME280;49297;43.210;27.914;2023-06-22T09:58:17;101490.41;;;28.85;53.17
63204;BME280;49297;43.210;27.914;2023-06-22T10:00:44;101476.63;;;28.92;52.74
63204;BME280;49297;43.210;27.914;2023-06-22T10:03:10;101477.78;;;29.08;52.62
63204;BME280;49297;43.210;27.914;2023-06-22T10:05:36;101485.78;;;29.26;51.90
63204;BME280;49297;43.210;27.914;2023-06-22T10:08:02;101491.00;;;29.45;51.18
63204;BME280;49297;43.210;27.914;2023-06-22T10:10:28;101489.63;;;29.59;50.10
63204;BME280;49297;43.210;27.914;2023-06-22T10:13:02;101475.66;;;29.72;49.76
63204;BME280;49297;43.210;27.914;2023-06-22T10:15:28;101479.16;;;30.02;49.70
63204;BME280;49297;43.210;27.914;2023-06-22T10:17:56;101475.84;;;30.16;48.95
63204;BME280;49297;43.210;27.914;2023-06-22T10:20:23;101478.06;;;30.36;48.64
63204;BME280;49297;43.210;27.914;2023-06-22T10:22:50;101476.13;;;30.54;46.48
63204;BME280;49297;43.210;27.914;2023-06-22T10:25:18;101480.47;;;30.55;45.89
63204;BME280;49297;43.210;27.914;2023-06-22T10:27:44;101485.41;;;30.75;46.07
63204;BME280;49297;43.210;27.914;2023-06-22T10:30:12;101497.41;;;30.96;45.63
63204;BME280;49297;43.210;27.914;2023-06-22T10:32:42;101492.44;;;31.15;45.06
63204;BME280;49297;43.210;27.914;2023-06-22T10:35:09;101495.72;;;31.44;44.08
63204;BME280;49297;43.210;27.914;2023-06-22T10:37:43;101493.78;;;31.67;44.37
63204;BME280;49297;43.210;27.914;2023-06-22T10:40:09;101497.81;;;31.92;44.98
63204;BME280;49297;43.210;27.914;2023-06-22T10:42:37;101496.44;;;31.94;45.81
63204;BME280;49297;43.210;27.914;2023-06-22T10:45:06;101495.53;;;32.11;45.85
63204;BME280;49297;43.210;27.914;2023-06-22T10:47:32;101484.09;;;32.24;46.26
63204;BME280;49297;43.210;27.914;2023-06-22T10:49:58;101481.72;;;32.38;45.45
63204;BME280;49297;43.210;27.914;2023-06-22T10:52:23;101468.38;;;32.52;45.91
63204;BME280;49297;43.210;27.914;2023-06-22T10:54:49;101472.09;;;32.93;45.32
63204;BME280;49297;43.210;27.914;2023-06-22T10:57:15;101471.91;;;33.15;44.40
63204;BME280;49297;43.210;27.914;2023-06-22T10:59:41;101476.59;;;33.56;44.21
63204;BME280;49297;43.210;27.914;2023-06-22T11:02:06;101476.06;;;33.85;42.83
63204;BME280;49297;43.210;27.914;2023-06-22T11:04:32;101470.84;;;34.09;42.87
63204;BME280;49297;43.210;27.914;2023-06-22T11:06:59;101470.28;;;34.07;42.27
63204;BME280;49297;43.210;27.914;2023-06-22T11:09:25;101473.59;;;33.57;43.27
63204;BME280;49297;43.210;27.914;2023-06-22T11:11:51;101472.38;;;32.92;44.74
63204;BME280;49297;43.210;27.914;2023-06-22T11:14:20;101473.19;;;32.34;46.21
63204;BME280;49297;43.210;27.914;2023-06-22T11:16:47;101474.66;;;32.04;46.84
63204;BME280;49297;43.210;27.914;2023-06-22T11:19:14;101466.06;;;31.58;47.59
63204;BME280;49297;43.210;27.914;2023-06-22T11:21:40;101478.03;;;30.98;49.27
63204;BME280;49297;43.210;27.914;2023-06-22T11:24:06;101472.50;;;30.92;50.27
63204;BME280;49297;43.210;27.914;2023-06-22T11:26:32;101470.25;;;31.39;49.08
63204;BME280;49297;43.210;27.914;2023-06-22T11:28:58;101469.53;;;31.81;48.17
63204;BME280;49297;43.210;27.914;2023-06-22T11:31:24;101465.25;;;31.95;47.70
63204;BME280;49297;43.210;27.914;2023-06-22T11:33:50;101475.72;;;32.41;47.66
63204;BME280;49297;43.210;27.914;2023-06-22T11:36:18;101471.34;;;33.13;46.13
63204;BME280;49297;43.210;27.914;2023-06-22T11:38:46;101467.88;;;33.69;44.80
63204;BME280;49297;43.210;27.914;2023-06-22T11:41:13;101471.09;;;34.18;43.92
63204;BME280;49297;43.210;27.914;2023-06-22T11:43:39;101468.91;;;34.25;43.72
63204;BME280;49297;43.210;27.914;2023-06-22T11:46:05;101469.69;;;34.36;43.69
63204;BME280;49297;43.210;27.914;2023-06-22T11:48:33;101473.50;;;34.40;42.92
63204;BME280;49297;43.210;27.914;2023-06-22T11:50:59;101469.16;;;34.08;43.55
63204;BME280;49297;43.210;27.914;2023-06-22T11:53:26;101462.84;;;34.12;43.15
63204;BME280;49297;43.210;27.914;2023-06-22T11:55:54;101467.50;;;34.32;43.11
63204;BME280;49297;43.210;27.914;2023-06-22T11:58:22;101464.88;;;34.72;42.31
63204;BME280;49297;43.210;27.914;2023-06-22T12:00:49;101463.34;;;35.00;41.73
63204;BME280;49297;43.210;27.914;2023-06-22T12:03:32;101470.50;;;35.01;41.21
63204;BME280;49297;43.210;27.914;2023-06-22T12:05:58;101464.16;;;35.01;41.79
63204;BME280;49297;43.210;27.914;2023-06-22T12:08:25;101467.34;;;35.23;41.16
63204;BME280;49297;43.210;27.914;2023-06-22T12:10:51;101468.56;;;35.46;40.98
63204;BME280;49297;43.210;27.914;2023-06-22T12:13:17;101464.84;;;35.61;40.57
63204;BME280;49297;43.210;27.914;2023-06-22T12:15:44;101474.38;;;35.40;40.66
63204;BME280;49297;43.210;27.914;2023-06-22T12:18:11;101466.59;;;35.07;41.47
63204;BME280;49297;43.210;27.914;2023-06-22T12:20:42;101455.91;;;35.01;41.77
63204;BME280;49297;43.210;27.914;2023-06-22T12:23:08;101450.84;;;34.68;42.47
63204;BME280;49297;43.210;27.914;2023-06-22T12:25:34;101453.03;;;34.82;42.35
63204;BME280;49297;43.210;27.914;2023-06-22T12:28:01;101458.09;;;35.04;41.96
63204;BME280;49297;43.210;27.914;2023-06-22T12:30:28;101457.06;;;34.95;42.21
63204;BME280;49297;43.210;27.914;2023-06-22T12:32:55;101457.13;;;35.29;41.94
63204;BME280;49297;43.210;27.914;2023-06-22T12:35:21;101456.53;;;35.67;40.86
63204;BME280;49297;43.210;27.914;2023-06-22T12:37:46;101457.16;;;35.63;40.98
63204;BME280;49297;43.210;27.914;2023-06-22T12:40:15;101457.78;;;35.50;40.88
63204;BME280;49297;43.210;27.914;2023-06-22T12:42:44;101462.00;;;35.42;41.14
63204;BME280;49297;43.210;27.914;2023-06-22T12:45:11;101453.63;;;35.53;40.69